Time;durP1;ratioP1;P1;durP2;ratioP2;P2;SDS_P1;SDS_P2;PMS_P1;PMS_P2;Temp;Humidity;BMP_temperature;BMP_pressure;BME280_temperature;BME280_humidity;BME280_pressure;Samples;Min_cycle;Max_cycle;Signal;HPM_P1;HPM_P2
2023/09/28 00:01:35;;;;;;;5.93;3.25;;;;;;;19.15;43.54;95236.63;5089439;28;20020;-85
2023/09/28 00:04:01;;;;;;;7.65;2.97;;;;;;;19.08;43.68;95234.25;5088475;28;20024;-86
2023/09/28 00:06:26;;;;;;;8.27;2.95;;;;;;;19.08;43.75;95239.84;5090530;28;20016;-86
2023/09/28 00:08:52;;;;;;;8.10;3.13;;;;;;;19.05;43.79;95233.22;5089700;28;20107;-87
2023/09/28 00:11:17;;;;;;;5.53;3.30;;;;;;;19.02;43.79;95245.34;5071857;28;20039;-85
2023/09/28 00:13:43;;;;;;;7.43;3.20;;;;;;;19.03;43.60;95235.72;5088597;28;20099;-87
2023/09/28 00:16:08;;;;;;;9.68;2.97;;;;;;;19.03;43.63;95234.94;5089389;28;20023;-85
2023/09/28 00:18:34;;;;;;;6.88;3.00;;;;;;;18.99;43.41;95229.59;5089741;28;20024;-86
2023/09/28 00:21:01;;;;;;;8.82;2.78;;;;;;;18.93;43.37;95228.75;5089022;28;20044;-86
2023/09/28 00:23:26;;;;;;;5.60;2.42;;;;;;;18.89;43.88;95230.22;5090155;28;20102;-87
2023/09/28 00:25:52;;;;;;;8.05;2.67;;;;;;;18.84;43.79;95224.06;5089205;28;20748;-83
2023/09/28 00:28:17;;;;;;;4.05;2.55;;;;;;;18.82;43.62;95234.94;5088311;28;20538;-85
2023/09/28 00:30:44;;;;;;;5.43;2.67;;;;;;;18.77;43.95;95230.03;5087778;28;20343;-86
2023/09/28 00:33:09;;;;;;;9.20;2.85;;;;;;;18.74;44.42;95224.66;5089293;28;20455;-85
2023/09/28 00:35:35;;;;;;;4.93;2.92;;;;;;;18.75;44.42;95242.91;5088146;28;20020;-86
2023/09/28 00:38:00;;;;;;;11.25;3.30;;;;;;;18.68;44.72;95238.50;5087261;28;20099;-86
2023/09/28 00:40:31;;;;;;;4.43;2.60;;;;;;;18.65;44.58;95236.66;5087802;28;20019;-85
2023/09/28 00:42:57;;;;;;;9.43;3.30;;;;;;;18.65;45.03;95235.91;5087532;28;20095;-85
2023/09/28 00:45:24;;;;;;;7.60;3.08;;;;;;;18.64;44.94;95237.91;5071216;28;20047;-84
2023/09/28 00:47:51;;;;;;;7.28;3.42;;;;;;;18.55;45.27;95238.78;5088874;28;20081;-86
2023/09/28 00:50:17;;;;;;;8.18;3.80;;;;;;;18.55;45.23;95236.00;5088731;28;20452;-85
2023/09/28 00:52:47;;;;;;;5.65;3.03;;;;;;;18.52;45.47;95242.53;5087365;28;20019;-85
2023/09/28 00:55:15;;;;;;;7.10;3.90;;;;;;;18.52;45.45;95241.75;5086935;28;20024;-85
2023/09/28 00:57:45;;;;;;;9.38;3.50;;;;;;;18.45;45.75;95237.34;5087510;28;20032;-85
2023/09/28 01:00:31;;;;;;;6.72;3.08;;;;;;;18.39;45.76;95235.72;5086877;28;20035;-85
2023/09/28 01:02:59;;;;;;;5.95;3.53;;;;;;;18.35;45.92;95233.16;5087782;28;20056;-85
2023/09/28 01:05:39;;;;;;;5.70;2.72;;;;;;;18.34;45.85;95230.84;5087371;28;20385;-84
2023/09/28 01:08:10;;;;;;;6.03;3.20;;;;;;;18.25;46.08;95229.69;5087223;28;20111;-85
2023/09/28 01:10:36;;;;;;;7.60;3.33;;;;;;;18.23;45.94;95231.41;5088410;28;20025;-85
2023/09/28 01:13:17;;;;;;;6.22;3.40;;;;;;;18.17;45.96;95225.75;5086203;28;20042;-84
2023/09/28 01:15:48;;;;;;;4.10;3.15;;;;;;;18.13;46.30;95233.53;5087664;28;20027;-85
2023/09/28 01:18:15;;;;;;;6.03;3.55;;;;;;;18.12;46.32;95234.78;5088309;28;20518;-86
2023/09/28 01:20:51;;;;;;;7.80;3.85;;;;;;;18.04;46.36;95237.16;5086983;28;20063;-84
2023/09/28 01:23:17;;;;;;;8.18;3.53;;;;;;;17.96;46.35;95227.69;5087240;28;20024;-84
2023/09/28 01:25:46;;;;;;;8.27;3.17;;;;;;;17.96;46.61;95227.69;5087920;28;20398;-86
2023/09/28 01:28:11;;;;;;;7.43;3.53;;;;;;;17.90;47.07;95232.38;5070206;28;20048;-85
2023/09/28 01:30:36;;;;;;;7.03;3.53;;;;;;;17.89;47.27;95233.63;5087564;28;20102;-85
2023/09/28 01:33:02;;;;;;;8.63;3.50;;;;;;;17.82;47.95;95231.19;5086262;28;20403;-85
2023/09/28 01:35:28;;;;;;;5.85;3.25;;;;;;;17.80;47.91;95239.25;5086017;28;20028;-84
2023/09/28 01:38:14;;;;;;;5.35;3.25;;;;;;;17.78;47.99;95236.97;5086187;28;20132;-85
2023/09/28 01:40:40;;;;;;;7.40;4.50;;;;;;;17.74;48.11;95236.38;5086935;28;20512;-85
2023/09/28 01:43:06;;;;;;;4.93;3.17;;;;;;;17.72;48.24;95238.88;5088375;28;20115;-85
2023/09/28 01:45:31;;;;;;;5.30;3.40;;;;;;;17.69;48.09;95242.56;5087933;28;20028;-84
2023/09/28 01:47:56;;;;;;;8.45;3.88;;;;;;;17.59;48.33;95229.97;5088429;28;20020;-85
2023/09/28 01:50:22;;;;;;;6.35;3.22;;;;;;;17.59;48.26;95235.53;5086407;28;20031;-85
2023/09/28 01:52:47;;;;;;;5.50;3.53;;;;;;;17.51;47.96;95231.59;5085856;28;20028;-85
2023/09/28 01:55:13;;;;;;;5.78;3.30;;;;;;;17.48;48.48;95240.88;5085443;28;20032;-85
2023/09/28 01:57:38;;;;;;;6.50;3.67;;;;;;;17.47;48.41;95239.34;5087367;28;20543;-84
2023/09/28 02:00:16;;;;;;;8.43;3.30;;;;;;;17.44;48.36;95234.75;5087213;28;20494;-86
2023/09/28 02:02:45;;;;;;;7.97;3.50;;;;;;;17.36;48.71;95230.78;5086637;28;20068;-85
2023/09/28 02:05:14;;;;;;;8.13;3.60;;;;;;;17.32;49.16;95238.50;5068653;28;20064;-85
2023/09/28 02:07:40;;;;;;;8.13;3.72;;;;;;;17.26;49.09;95232.84;5086320;28;20052;-85
2023/09/28 02:10:06;;;;;;;11.27;3.58;;;;;;;17.20;49.25;95232.75;5085727;28;20097;-85
2023/09/28 02:12:32;;;;;;;4.28;3.60;;;;;;;17.21;49.06;95242.59;5085342;28;20034;-85
2023/09/28 02:15:00;;;;;;;6.65;3.60;;;;;;;17.12;49.43;95228.78;5086108;28;20535;-85
2023/09/28 02:17:28;;;;;;;7.47;4.32;;;;;;;17.07;49.60;95240.53;5086557;28;20517;-86
2023/09/28 02:19:53;;;;;;;9.55;4.20;;;;;;;17.07;49.41;95232.19;5087370;28;20035;-85
2023/09/28 02:22:18;;;;;;;6.85;3.95;;;;;;;17.03;49.74;95239.91;5085115;28;20471;-85
2023/09/28 02:24:45;;;;;;;6.45;3.88;;;;;;;17.01;49.76;95233.31;5085887;28;20065;-84
2023/09/28 02:27:10;;;;;;;5.50;3.58;;;;;;;16.95;49.83;95238.75;5086613;28;20059;-84
2023/09/28 02:29:36;;;;;;;9.93;4.20;;;;;;;16.95;49.83;95247.84;5086787;28;20081;-85
2023/09/28 02:32:01;;;;;;;8.23;3.72;;;;;;;16.89;49.74;95237.84;5086966;28;20024;-83
2023/09/28 02:34:27;;;;;;;7.53;3.67;;;;;;;16.83;49.78;95243.28;5086108;28;20147;-84
2023/09/28 02:36:54;;;;;;;7.65;3.97;;;;;;;16.86;49.83;95256.25;5086740;28;20477;-86
2023/09/28 02:39:19;;;;;;;6.18;3.65;;;;;;;16.70;50.03;95245.47;5084647;28;20028;-83
2023/09/28 02:41:44;;;;;;;9.90;4.50;;;;;;;16.77;50.06;95258.28;5085461;28;20027;-84
2023/09/28 02:44:10;;;;;;;8.43;4.75;;;;;;;16.72;50.39;95245.81;5085612;28;20099;-83
2023/09/28 02:46:35;;;;;;;8.52;3.97;;;;;;;16.67;50.43;95247.19;5086392;28;20410;-83
2023/09/28 02:49:02;;;;;;;6.13;3.53;;;;;;;16.62;50.79;95247.81;5085056;28;20165;-85
2023/09/28 02:51:27;;;;;;;9.52;4.00;;;;;;;16.57;50.74;95259.53;5085996;28;20035;-83
2023/09/28 02:53:53;;;;;;;7.38;3.70;;;;;;;16.58;51.00;95252.78;5085161;28;20020;-85
2023/09/28 02:56:18;;;;;;;6.60;3.72;;;;;;;16.56;50.87;95255.22;5084689;28;20312;-84
2023/09/28 02:58:45;;;;;;;5.72;3.72;;;;;;;16.53;51.06;95253.41;5084975;28;20028;-83
2023/09/28 03:01:11;;;;;;;7.70;4.18;;;;;;;16.56;51.03;95262.78;5084949;28;20027;-82
2023/09/28 03:03:37;;;;;;;9.55;4.38;;;;;;;16.53;51.17;95264.50;5085248;28;20509;-85
2023/09/28 03:06:04;;;;;;;11.52;3.97;;;;;;;16.46;51.22;95257.28;5086229;28;20031;-84
2023/09/28 03:08:30;;;;;;;8.20;3.90;;;;;;;16.44;51.36;95261.75;5086120;28;20073;-84
2023/09/28 03:10:56;;;;;;;5.65;3.60;;;;;;;16.45;51.18;95264.06;5086754;28;20055;-85
2023/09/28 03:13:22;;;;;;;7.40;4.63;;;;;;;16.41;51.36;95263.47;5086257;28;20479;-86
2023/09/28 03:15:49;;;;;;;9.10;3.97;;;;;;;16.38;51.48;95252.53;5085240;28;20036;-85
2023/09/28 03:18:16;;;;;;;8.65;4.40;;;;;;;16.38;51.73;95258.84;5084740;28;20028;-85
2023/09/28 03:20:45;;;;;;;5.53;4.15;;;;;;;16.36;51.81;95258.56;5085370;28;20035;-85
2023/09/28 03:23:13;;;;;;;7.28;3.85;;;;;;;16.25;51.46;95252.72;5084869;28;20050;-84
2023/09/28 03:25:39;;;;;;;8.20;4.32;;;;;;;16.29;51.85;95256.13;5085167;28;20044;-85
2023/09/28 03:28:04;;;;;;;7.70;4.38;;;;;;;16.27;51.87;95255.03;5085024;28;20525;-85
2023/09/28 03:30:30;;;;;;;17.88;5.47;;;;;;;16.23;52.10;95260.75;5086110;28;20039;-84
2023/09/28 03:32:56;;;;;;;5.93;3.80;;;;;;;16.20;51.98;95261.69;5085434;28;20034;-85
2023/09/28 03:35:22;;;;;;;12.02;4.35;;;;;;;16.17;52.01;95260.63;5086755;28;20099;-85
2023/09/28 03:37:48;;;;;;;9.50;4.18;;;;;;;16.14;52.33;95260.75;5086231;28;20592;-85
2023/09/28 03:40:14;;;;;;;7.75;4.00;;;;;;;16.12;52.09;95264.00;5085071;28;20016;-84
2023/09/28 03:42:41;;;;;;;10.77;4.50;;;;;;;16.05;52.19;95258.75;5085287;28;20088;-84
2023/09/28 03:45:09;;;;;;;8.82;4.38;;;;;;;16.06;52.21;95263.09;5086585;28;20032;-85
2023/09/28 03:47:38;;;;;;;12.50;4.72;;;;;;;16.02;52.48;95264.50;5085622;28;20031;-83
2023/09/28 03:50:05;;;;;;;14.77;5.28;;;;;;;16.04;52.34;95268.31;5085000;28;20090;-85
2023/09/28 03:52:31;;;;;;;9.77;4.95;;;;;;;15.98;52.54;95270.19;5085211;28;20547;-85
2023/09/28 03:54:57;;;;;;;12.23;4.75;;;;;;;15.94;52.64;95269.56;5084583;28;20028;-84
2023/09/28 03:57:22;;;;;;;12.45;5.10;;;;;;;15.91;52.86;95267.72;5087513;28;20054;-83
2023/09/28 03:59:49;;;;;;;8.10;5.60;;;;;;;15.91;52.96;95276.03;5089803;28;20049;-84
2023/09/28 04:02:14;;;;;;;9.50;4.72;;;;;;;15.87;53.11;95264.34;5089704;28;20073;-83
2023/09/28 04:04:40;;;;;;;14.32;4.88;;;;;;;15.87;52.90;95267.09;5089282;28;20016;-84
2023/09/28 04:07:05;;;;;;;10.07;5.43;;;;;;;15.88;52.86;95271.41;5071074;28;20402;-83
2023/09/28 04:09:32;;;;;;;9.90;5.25;;;;;;;15.86;52.78;95271.13;5087779;28;20020;-82
2023/09/28 04:11:58;;;;;;;17.88;5.55;;;;;;;15.85;52.95;95264.81;5087437;28;20024;-82
2023/09/28 04:14:24;;;;;;;13.85;5.78;;;;;;;15.83;53.06;95264.50;5087423;28;20100;-82
2023/09/28 04:16:49;;;;;;;11.07;4.95;;;;;;;15.84;52.98;95259.72;5088890;28;20047;-83
2023/09/28 04:19:14;;;;;;;13.45;5.82;;;;;;;15.82;53.00;95257.41;5087268;28;20474;-84
2023/09/28 04:21:40;;;;;;;12.02;5.80;;;;;;;15.83;53.22;95264.50;5088019;28;20023;-81
2023/09/28 04:24:06;;;;;;;13.90;5.63;;;;;;;15.83;53.27;95258.19;5088765;28;20433;-83
2023/09/28 04:26:31;;;;;;;11.20;5.55;;;;;;;15.80;53.31;95264.66;5087434;28;20347;-83
2023/09/28 04:28:57;;;;;;;14.48;6.05;;;;;;;15.84;53.43;95276.38;5088505;28;20052;-84
2023/09/28 04:31:22;;;;;;;17.58;8.35;;;;;;;15.81;53.44;95263.41;5088382;28;20028;-82
2023/09/28 04:33:47;;;;;;;13.73;6.20;;;;;;;15.81;53.45;95271.75;5087028;28;20043;-84
2023/09/28 04:36:13;;;;;;;14.10;5.80;;;;;;;15.82;53.31;95271.25;5088402;28;20032;-83
2023/09/28 04:38:40;;;;;;;12.55;5.40;;;;;;;15.80;53.49;95275.75;5070740;28;20026;-83
2023/09/28 04:41:05;;;;;;;12.88;5.63;;;;;;;15.84;53.68;95281.91;5071200;28;20030;-84
2023/09/28 04:43:31;;;;;;;9.65;5.82;;;;;;;15.86;53.44;95280.19;5089213;28;20020;-84
2023/09/28 04:45:56;;;;;;;14.27;5.78;;;;;;;15.84;53.37;95279.13;5087149;28;20035;-85
2023/09/28 04:48:22;;;;;;;12.00;5.85;;;;;;;15.91;53.24;95279.59;5088444;28;20027;-83
2023/09/28 04:50:47;;;;;;;13.05;5.68;;;;;;;15.95;53.17;95284.22;5086900;28;20135;-85
2023/09/28 04:53:13;;;;;;;11.32;5.35;;;;;;;15.96;53.23;95289.28;5088113;28;20020;-84
2023/09/28 04:55:38;;;;;;;12.57;5.18;;;;;;;15.96;53.08;95289.28;5087285;28;20078;-83
2023/09/28 04:58:04;;;;;;;10.75;6.10;;;;;;;15.98;53.16;95292.34;5069887;28;20311;-84
2023/09/28 05:00:30;;;;;;;23.13;6.45;;;;;;;15.98;52.88;95286.81;5087529;28;20164;-85
2023/09/28 05:02:55;;;;;;;11.27;5.93;;;;;;;16.03;53.04;95293.75;5087260;28;20578;-88
2023/09/28 05:05:21;;;;;;;15.73;6.65;;;;;;;16.06;53.00;95304.69;5070619;28;20028;-85
2023/09/28 05:07:46;;;;;;;13.35;6.03;;;;;;;16.11;53.17;95303.28;5086285;28;20042;-79
2023/09/28 05:10:11;;;;;;;15.70;6.35;;;;;;;16.19;52.86;95298.97;5085890;28;20027;-82
2023/09/28 05:12:37;;;;;;;10.63;5.57;;;;;;;16.20;52.61;95295.72;5086341;28;20020;-83
2023/09/28 05:15:03;;;;;;;11.13;5.78;;;;;;;16.30;52.18;95301.25;5087336;28;20032;-82
2023/09/28 05:17:29;;;;;;;10.10;5.55;;;;;;;16.34;52.33;95297.06;5069865;28;20131;-82
2023/09/28 05:19:54;;;;;;;8.30;4.80;;;;;;;16.39;52.14;95292.91;5085922;28;20111;-84
2023/09/28 05:22:20;;;;;;;14.95;4.88;;;;;;;16.45;51.81;95302.91;5087925;28;20047;-83
2023/09/28 05:24:46;;;;;;;12.88;4.40;;;;;;;16.56;51.17;95291.31;5087870;28;20509;-83
2023/09/28 05:27:11;;;;;;;8.90;4.68;;;;;;;16.73;50.41;95302.84;5088000;28;20028;-83
2023/09/28 05:29:36;;;;;;;9.88;5.22;;;;;;;16.75;50.47;95314.28;5088385;28;20086;-83
2023/09/28 05:32:03;;;;;;;11.65;4.43;;;;;;;16.87;50.29;95310.53;5069309;28;20032;-82
2023/09/28 05:34:29;;;;;;;9.50;4.68;;;;;;;16.86;50.07;95302.66;5087774;28;20073;-84
2023/09/28 05:36:54;;;;;;;8.77;4.10;;;;;;;16.99;49.74;95306.75;5068813;28;20031;-83
2023/09/28 05:39:19;;;;;;;9.48;4.40;;;;;;;17.07;49.04;95309.19;5086500;28;20020;-84
2023/09/28 05:41:45;;;;;;;15.48;5.10;;;;;;;17.11;48.94;95307.78;5086133;28;20112;-83
2023/09/28 05:44:10;;;;;;;10.88;3.67;;;;;;;17.15;48.80;95310.41;5086959;28;20486;-82
2023/09/28 05:46:36;;;;;;;7.93;3.58;;;;;;;17.22;48.75;95315.59;5086602;28;20110;-82
2023/09/28 05:49:02;;;;;;;9.15;3.78;;;;;;;17.27;48.51;95314.97;5067577;28;20023;-84
2023/09/28 05:51:28;;;;;;;6.50;3.20;;;;;;;17.36;48.41;95314.91;5087209;28;20096;-84
2023/09/28 05:53:53;;;;;;;8.98;3.75;;;;;;;17.50;48.10;95316.22;5086612;28;20059;-82
2023/09/28 05:56:19;;;;;;;7.85;3.72;;;;;;;17.58;47.81;95311.81;5085950;28;20024;-83
2023/09/28 05:58:44;;;;;;;7.65;3.30;;;;;;;17.68;47.28;95315.31;5086928;28;20027;-83
2023/09/28 06:01:19;;;;;;;11.02;3.20;;;;;;;17.71;47.06;95309.56;5087109;28;20053;-82
2023/09/28 06:03:44;;;;;;;11.68;4.00;;;;;;;17.81;46.80;95309.53;5085653;28;20437;-84
2023/09/28 06:06:16;;;;;;;9.07;2.78;;;;;;;17.87;46.93;95310.41;5086736;28;20024;-83
2023/09/28 06:08:43;;;;;;;8.43;3.15;;;;;;;18.03;46.72;95316.31;5068696;28;20452;-83
2023/09/28 06:11:13;;;;;;;12.10;4.22;;;;;;;17.98;46.45;95305.06;5084969;28;20051;-83
2023/09/28 06:13:40;;;;;;;6.43;3.70;;;;;;;18.14;46.26;95314.97;5086934;28;20070;-83
2023/09/28 06:16:05;;;;;;;9.38;3.75;;;;;;;18.27;45.93;95310.66;5086088;28;20030;-82
2023/09/28 06:18:31;;;;;;;9.18;3.65;;;;;;;18.33;45.73;95310.00;5086698;28;20107;-84
2023/09/28 06:20:56;;;;;;;8.02;3.20;;;;;;;18.41;45.90;95319.50;5085292;28;20031;-83
2023/09/28 06:23:21;;;;;;;8.82;3.22;;;;;;;18.48;45.63;95313.56;5086432;28;20031;-83
2023/09/28 06:25:47;;;;;;;6.70;3.40;;;;;;;18.50;45.86;95308.28;5086650;28;20664;-84
2023/09/28 06:28:12;;;;;;;11.77;3.30;;;;;;;18.60;45.48;95312.50;5085886;28;20048;-83
2023/09/28 06:30:38;;;;;;;9.70;3.42;;;;;;;18.66;45.71;95312.59;5086212;28;20039;-83
2023/09/28 06:33:04;;;;;;;8.75;4.07;;;;;;;18.83;45.23;95313.69;5085517;28;20102;-83
2023/09/28 06:35:30;;;;;;;5.80;3.20;;;;;;;18.91;44.65;95317.59;5086957;28;20073;-83
2023/09/28 06:37:56;;;;;;;10.82;3.78;;;;;;;18.94;44.95;95313.09;5085956;28;20027;-82
2023/09/28 06:40:22;;;;;;;11.45;4.20;;;;;;;19.04;44.63;95315.28;5086033;28;20035;-84
2023/09/28 06:42:47;;;;;;;5.78;3.78;;;;;;;19.13;44.44;95310.84;5085971;28;20024;-81
2023/09/28 06:45:12;;;;;;;9.02;3.50;;;;;;;19.19;44.33;95320.81;5085870;28;20035;-82
2023/09/28 06:47:38;;;;;;;13.18;4.60;;;;;;;19.24;44.19;95322.91;5086019;28;20024;-83
2023/09/28 06:50:04;;;;;;;9.98;4.60;;;;;;;19.32;44.30;95315.66;5085648;28;20027;-84
2023/09/28 06:52:30;;;;;;;7.32;3.85;;;;;;;19.39;43.67;95320.09;5085837;28;20035;-83
2023/09/28 06:54:55;;;;;;;9.80;3.90;;;;;;;19.56;43.92;95325.91;5084088;28;20012;-83
2023/09/28 06:57:21;;;;;;;7.28;3.25;;;;;;;19.62;43.29;95333.13;5085816;28;20024;-83
2023/09/28 06:59:46;;;;;;;9.23;3.30;;;;;;;19.72;43.23;95332.97;5085539;28;20488;-83
2023/09/28 07:02:12;;;;;;;14.25;4.72;;;;;;;19.79;43.30;95327.00;5086112;28;20020;-83
2023/09/28 07:04:37;;;;;;;6.22;3.00;;;;;;;19.85;43.19;95330.63;5086118;28;20367;-84
2023/09/28 07:07:03;;;;;;;5.70;3.25;;;;;;;19.93;43.17;95331.72;5084612;28;20048;-84
2023/09/28 07:09:28;;;;;;;9.43;4.10;;;;;;;20.03;42.84;95337.94;5067552;28;20104;-84
2023/09/28 07:11:54;;;;;;;6.78;3.92;;;;;;;20.04;42.92;95331.84;5084032;28;20111;-83
2023/09/28 07:14:19;;;;;;;8.77;3.17;;;;;;;20.15;42.67;95334.00;5085698;28;20039;-84
2023/09/28 07:16:45;;;;;;;10.52;3.78;;;;;;;20.22;43.10;95330.78;5085599;28;20016;-84
2023/09/28 07:19:10;;;;;;;9.23;4.25;;;;;;;20.36;42.78;95335.50;5089353;28;20028;-84
2023/09/28 07:21:36;;;;;;;9.65;4.20;;;;;;;20.43;42.62;95323.91;5085783;28;20024;-83
2023/09/28 07:24:02;;;;;;;6.63;3.53;;;;;;;20.48;42.34;95336.41;5086057;28;20023;-85
2023/09/28 07:26:27;;;;;;;6.03;3.58;;;;;;;20.56;42.35;95333.94;5085959;28;20482;-85
2023/09/28 07:28:54;;;;;;;8.00;3.45;;;;;;;20.61;42.69;95331.22;5083994;28;20044;-84
2023/09/28 07:31:21;;;;;;;4.22;2.67;;;;;;;20.72;41.83;95327.75;5086328;28;20031;-84
2023/09/28 07:33:48;;;;;;;8.10;3.45;;;;;;;20.84;41.98;95337.00;5071599;28;20028;-84
2023/09/28 07:36:14;;;;;;;9.45;3.08;;;;;;;20.93;42.14;95334.81;5071995;28;20615;-84
2023/09/28 07:38:40;;;;;;;4.95;2.90;;;;;;;21.02;41.42;95331.03;5089600;28;20051;-85
2023/09/28 07:41:05;;;;;;;6.72;3.00;;;;;;;21.06;41.45;95328.03;5088843;28;20469;-85
2023/09/28 07:43:31;;;;;;;6.82;2.80;;;;;;;21.03;41.74;95334.59;5088212;28;20446;-85
2023/09/28 07:45:56;;;;;;;7.45;2.65;;;;;;;21.10;41.87;95334.13;5089784;28;20039;-83
2023/09/28 07:48:22;;;;;;;7.75;3.05;;;;;;;21.20;41.63;95327.88;5089872;28;20047;-85
2023/09/28 07:50:48;;;;;;;6.85;2.50;;;;;;;21.38;41.89;95334.38;5088125;28;20040;-84
2023/09/28 07:53:14;;;;;;;7.22;3.28;;;;;;;21.47;41.75;95332.16;5088416;28;20433;-85
2023/09/28 07:55:40;;;;;;;9.65;4.28;;;;;;;21.64;41.33;95328.69;5070583;28;20065;-85
2023/09/28 07:58:05;;;;;;;10.45;3.03;;;;;;;21.82;41.01;95333.09;5089838;28;20132;-83
2023/09/28 08:00:32;;;;;;;10.93;2.85;;;;;;;21.90;41.04;95337.69;5087694;28;20067;-85
2023/09/28 08:02:57;;;;;;;7.85;2.70;;;;;;;22.04;40.82;95336.00;5089583;28;20028;-84
2023/09/28 08:05:23;;;;;;;7.47;2.90;;;;;;;22.15;40.47;95326.91;5089170;28;20020;-85
2023/09/28 08:07:48;;;;;;;8.23;3.28;;;;;;;22.25;40.31;95336.59;5071051;28;20418;-85
2023/09/28 08:10:14;;;;;;;9.02;2.85;;;;;;;22.33;40.42;95334.09;5089359;28;20036;-86
2023/09/28 08:12:40;;;;;;;5.40;2.60;;;;;;;22.49;39.81;95331.31;5088741;28;20501;-86
2023/09/28 08:15:06;;;;;;;6.38;2.70;;;;;;;22.55;39.62;95327.78;5088148;28;20421;-85
2023/09/28 08:17:33;;;;;;;5.47;2.47;;;;;;;22.59;39.72;95317.06;5087465;28;20024;-86
2023/09/28 08:19:59;;;;;;;6.65;2.65;;;;;;;22.72;39.34;95326.53;5089390;28;20073;-86
2023/09/28 08:22:24;;;;;;;5.57;2.70;;;;;;;22.82;39.41;95321.41;5087354;28;20103;-85
2023/09/28 08:24:50;;;;;;;8.57;2.90;;;;;;;22.87;38.59;95326.28;5087840;28;20030;-85
2023/09/28 08:27:16;;;;;;;9.63;3.05;;;;;;;23.00;38.27;95329.38;5087436;28;20024;-84
2023/09/28 08:29:42;;;;;;;10.63;3.60;;;;;;;23.16;37.72;95321.44;5087267;28;20029;-84
2023/09/28 08:32:08;;;;;;;5.85;2.65;;;;;;;23.35;37.87;95328.06;5089111;28;20027;-85
2023/09/28 08:34:34;;;;;;;10.07;3.03;;;;;;;23.68;37.64;95323.69;5070518;28;20020;-85
2023/09/28 08:37:02;;;;;;;9.32;3.55;;;;;;;23.96;37.26;95321.53;5087783;28;20181;-86
2023/09/28 08:39:28;;;;;;;9.73;3.20;;;;;;;24.25;36.37;95325.00;5088942;28;20134;-85
2023/09/28 08:41:55;;;;;;;5.20;2.38;;;;;;;24.51;36.28;95319.03;5088263;28;20032;-86
2023/09/28 08:44:28;;;;;;;10.15;3.03;;;;;;;24.62;35.97;95319.72;5086976;28;20122;-86
2023/09/28 08:46:56;;;;;;;;;;;;;;;25.08;34.97;95318.13;5070843;28;20054;-86
2023/09/28 08:49:21;;;;;;;3.78;1.90;;;;;;;25.34;34.23;95311.25;5070796;28;19959;-86
2023/09/28 08:51:47;;;;;;;5.35;2.53;;;;;;;25.69;34.08;95316.78;5087083;28;20435;-86
2023/09/28 08:54:13;;;;;;;9.27;2.58;;;;;;;26.09;33.36;95316.34;5087617;28;20024;-87
2023/09/28 08:56:39;;;;;;;5.43;2.53;;;;;;;26.50;32.96;95306.91;5086900;28;20035;-86
2023/09/28 08:59:05;;;;;;;5.97;2.72;;;;;;;26.80;31.75;95313.09;5087535;28;20024;-87
2023/09/28 09:01:32;;;;;;;5.57;2.35;;;;;;;27.15;31.21;95308.47;5086903;28;20528;-87
2023/09/28 09:03:57;;;;;;;6.93;2.47;;;;;;;27.51;31.01;95317.34;5087178;28;20024;-87
2023/09/28 09:06:24;;;;;;;9.50;2.72;;;;;;;27.92;30.61;95311.19;5070550;28;20456;-85
2023/09/28 09:08:50;;;;;;;5.45;2.20;;;;;;;28.36;29.98;95314.44;5086965;28;20059;-85
2023/09/28 09:11:19;;;;;;;6.13;2.67;;;;;;;28.64;29.33;95319.50;5091494;28;20027;-87
2023/09/28 09:13:51;;;;;;;6.82;2.50;;;;;;;28.99;28.56;95306.13;5088374;28;20367;-86
2023/09/28 09:16:17;;;;;;;4.63;2.45;;;;;;;29.34;27.93;95313.22;5088171;28;20063;-87
2023/09/28 09:18:43;;;;;;;6.07;2.60;;;;;;;29.66;27.96;95315.78;5070385;28;20052;-87
2023/09/28 09:21:08;;;;;;;6.28;2.25;;;;;;;29.95;27.24;95307.28;5088459;28;20032;-88
2023/09/28 09:23:34;;;;;;;6.13;2.33;;;;;;;30.10;26.92;95308.13;5087424;28;20020;-88
2023/09/28 09:25:59;;;;;;;12.35;2.47;;;;;;;30.40;25.98;95312.47;5086947;28;20032;-88
2023/09/28 09:28:30;;;;;;;6.18;2.53;;;;;;;30.82;26.04;95310.16;5087138;28;20036;-87
2023/09/28 09:30:56;;;;;;;10.60;2.58;;;;;;;31.31;25.51;95316.91;5086716;28;20405;-88
2023/09/28 09:33:22;;;;;;;8.68;2.80;;;;;;;31.72;25.10;95310.84;5088652;28;20034;-88
2023/09/28 09:35:49;;;;;;;6.40;2.50;;;;;;;32.39;24.36;95306.94;5087151;28;20028;-88
2023/09/28 09:38:15;;;;;;;7.65;2.25;;;;;;;33.11;23.08;95299.78;5088135;28;20054;-89
2023/09/28 09:40:40;;;;;;;8.73;2.60;;;;;;;33.95;22.53;95308.47;5087022;28;20107;-87
2023/09/28 09:43:07;;;;;;;6.75;2.45;;;;;;;34.68;21.07;95295.84;5086831;28;20024;-90
2023/09/28 09:45:38;;;;;;;5.80;2.35;;;;;;;35.40;20.40;95305.91;5087496;28;20489;-89
2023/09/28 09:48:09;;;;;;;8.07;2.47;;;;;;;36.05;20.03;95310.19;5070112;28;20035;-90
2023/09/28 09:50:36;;;;;;;6.32;2.58;;;;;;;36.65;18.73;95304.66;5087309;28;20040;-88
2023/09/28 09:53:04;;;;;;;5.82;2.33;;;;;;;37.28;18.34;95294.13;5070037;28;20035;-91
2023/09/28 09:55:31;;;;;;;8.13;2.45;;;;;;;37.94;18.09;95289.47;5069586;28;20032;-89
2023/09/28 09:58:01;;;;;;;6.32;2.58;;;;;;;38.14;18.06;95290.13;5086993;28;20054;-90
2023/09/28 10:00:33;;;;;;;5.95;2.08;;;;;;;37.58;18.07;95284.84;5086684;28;20035;-89
2023/09/28 10:02:58;;;;;;;4.65;2.20;;;;;;;37.16;18.42;95291.16;5070353;28;20035;-89
2023/09/28 10:05:26;;;;;;;7.03;2.60;;;;;;;36.34;19.84;95298.75;5086825;28;20028;-89
2023/09/28 10:07:52;;;;;;;6.88;2.15;;;;;;;35.38;20.72;95300.00;5070154;28;20043;-88
2023/09/28 10:10:22;;;;;;;5.40;2.20;;;;;;;34.54;21.66;95306.88;5086521;28;20032;-90
2023/09/28 10:12:48;;;;;;;7.75;2.33;;;;;;;34.02;22.70;95295.47;5069574;28;20028;-88
2023/09/28 10:15:14;;;;;;;6.55;2.42;;;;;;;33.41;23.37;95296.72;5088053;28;20505;-89
2023/09/28 10:17:40;;;;;;;6.82;2.13;;;;;;;35.07;21.75;95294.00;5086401;28;20469;-89
2023/09/28 10:20:07;;;;;;;6.20;2.30;;;;;;;34.03;22.35;95294.88;5086508;28;20031;-88
2023/09/28 10:22:32;;;;;;;7.50;2.22;;;;;;;33.24;23.41;95293.81;5086333;28;20023;-88
2023/09/28 10:24:57;;;;;;;5.55;2.28;;;;;;;32.58;24.02;95292.28;5087562;28;20495;-87
2023/09/28 10:27:23;;;;;;;5.68;2.42;;;;;;;33.63;23.15;95292.19;5085778;28;20082;-87
2023/09/28 10:29:49;;;;;;;7.10;2.30;;;;;;;34.26;21.90;95283.22;5086451;28;20024;-89
2023/09/28 10:32:28;;;;;;;5.55;2.40;;;;;;;33.85;22.70;95286.88;5086069;28;20035;-88
2023/09/28 10:35:19;;;;;;;5.05;2.47;;;;;;;33.96;22.92;95284.31;5086996;28;20044;-87
2023/09/28 10:38:15;;;;;;;8.82;3.03;;;;;;;34.05;23.09;95291.41;5087495;28;20153;-89
2023/09/28 10:40:42;;;;;;;9.40;3.30;;;;;;;35.26;21.90;95285.53;5087105;28;20482;-89
2023/09/28 10:43:11;;;;;;;5.80;2.63;;;;;;;35.60;21.26;95292.44;5085799;28;20025;-90
2023/09/28 10:45:37;;;;;;;4.78;2.25;;;;;;;35.27;21.25;95287.06;5086041;28;20107;-88
2023/09/28 10:48:06;;;;;;;7.60;3.45;;;;;;;36.68;20.25;95275.56;5086324;28;20090;-92
2023/09/28 10:50:37;;;;;;;6.82;3.35;;;;;;;37.51;19.47;95277.19;5088477;28;20028;-90
2023/09/28 10:53:02;;;;;;;13.00;3.10;;;;;;;37.56;19.02;95272.47;5085186;28;20216;-86
2023/09/28 10:55:28;;;;;;;6.28;2.45;;;;;;;38.45;18.02;95272.06;5086355;28;20024;-92
2023/09/28 10:57:53;;;;;;;11.32;4.03;;;;;;;39.21;17.38;95266.94;5086954;28;20054;-92
2023/09/28 11:00:23;;;;;;;4.60;2.30;;;;;;;39.75;16.56;95268.88;5069523;28;20036;-91
2023/09/28 11:02:48;;;;;;;12.98;4.30;;;;;;;40.00;16.63;95276.06;5088143;28;20066;-87
2023/09/28 11:05:14;;;;;;;13.43;4.72;;;;;;;40.60;15.85;95273.19;5087698;28;20063;-90
2023/09/28 11:07:40;;;;;;;11.30;3.83;;;;;;;41.06;15.50;95265.72;5088113;28;20417;-93
2023/09/28 11:10:08;;;;;;;8.35;2.33;;;;;;;41.30;15.03;95269.19;5069264;28;20110;-89
2023/09/28 11:12:34;;;;;;;7.20;3.17;;;;;;;41.80;14.82;95269.69;5088176;28;20024;-91
2023/09/28 11:15:01;;;;;;;7.22;2.40;;;;;;;41.90;14.95;95258.69;5068951;28;20027;-88
2023/09/28 11:17:26;;;;;;;6.63;3.20;;;;;;;42.00;14.67;95262.09;5086728;28;20020;-88
2023/09/28 11:19:52;;;;;;;8.57;3.05;;;;;;;41.69;14.97;95268.38;5086001;28;20479;-89
2023/09/28 11:22:18;;;;;;;8.52;2.70;;;;;;;41.07;15.35;95275.84;5085430;28;20024;-88
2023/09/28 11:24:44;;;;;;;7.22;2.33;;;;;;;40.90;15.32;95264.78;5086294;28;20020;-89
2023/09/28 11:27:09;;;;;;;5.70;2.47;;;;;;;39.89;16.20;95266.06;5068186;28;20525;-89
2023/09/28 11:29:36;;;;;;;6.25;2.70;;;;;;;39.02;16.70;95259.28;5086097;28;20142;-88